createdAt,value
2023-04-20T00:04:16.170Z,8.20
2023-04-20T00:09:21.921Z,8.20
2023-04-20T00:14:24.605Z,8.20
2023-04-20T00:19:28.620Z,8.10
2023-04-20T00:24:31.292Z,8.20
2023-04-20T00:29:34.224Z,8.30
2023-04-20T00:34:36.814Z,8.30
2023-04-20T00:39:39.489Z,8.20
2023-04-20T00:44:42.090Z,8.20
2023-04-20T00:49:44.708Z,8.20
2023-04-20T00:54:47.521Z,8.10
2023-04-20T00:59:52.050Z,8.10
2023-04-20T01:04:57.634Z,8.10
2023-04-20T01:10:00.279Z,8.20
2023-04-20T01:15:05.869Z,8.20
2023-04-20T01:20:11.816Z,8.20
2023-04-20T01:25:15.046Z,8.10
2023-04-20T01:30:17.626Z,8.10
2023-04-20T01:35:20.345Z,8.10
2023-04-20T01:40:23.237Z,8.10
2023-04-20T01:45:25.946Z,8.10
2023-04-20T01:50:28.479Z,8.10
2023-04-20T01:55:31.112Z,8.00
2023-04-20T02:00:33.751Z,8.00
2023-04-20T02:05:36.388Z,7.80
2023-04-20T02:10:38.952Z,7.90
2023-04-20T02:15:41.749Z,8.00
2023-04-20T02:20:50.037Z,8.00
2023-04-20T02:25:52.833Z,7.90
2023-04-20T02:30:55.806Z,7.90
2023-04-20T02:35:58.446Z,7.80
2023-04-20T02:41:01.290Z,7.70
2023-04-20T02:46:04.332Z,7.70
2023-04-20T02:51:06.961Z,7.80
2023-04-20T02:56:16.196Z,7.80
2023-04-20T03:01:22.361Z,7.80
2023-04-20T03:06:29.814Z,7.90
2023-04-20T03:11:33.349Z,7.90
2023-04-20T03:16:36.954Z,7.90
2023-04-20T03:21:41.036Z,7.80
2023-04-20T03:26:43.800Z,7.90
2023-04-20T03:31:52.427Z,7.90
2023-04-20T03:36:55.507Z,7.90
2023-04-20T03:41:59.302Z,7.80
2023-04-20T03:47:02.033Z,7.70
2023-04-20T03:52:05.363Z,7.60
2023-04-20T03:57:08.034Z,7.50
2023-04-20T04:02:13.733Z,7.40
2023-04-20T04:07:19.022Z,7.50
2023-04-20T04:12:22.019Z,7.50
2023-04-20T04:17:25.860Z,7.50
2023-04-20T04:22:31.341Z,7.60
2023-04-20T04:27:56.608Z,7.90
2023-04-20T04:32:59.933Z,7.90
2023-04-20T04:38:03.354Z,7.90
2023-04-20T04:43:06.018Z,7.90
2023-04-20T04:48:12.378Z,8.00
2023-04-20T04:53:15.418Z,8.10
2023-04-20T04:58:17.962Z,8.00
2023-04-20T05:03:20.672Z,8.10
2023-04-20T05:08:24.504Z,8.30
2023-04-20T05:13:27.114Z,8.40
2023-04-20T05:18:29.586Z,8.50
2023-04-20T05:23:32.463Z,8.70
2023-04-20T05:28:35.863Z,8.80
2023-04-20T05:33:38.295Z,8.90
2023-04-20T05:38:40.851Z,9.20
2023-04-20T05:43:43.388Z,9.30
2023-04-20T05:48:46.138Z,9.40
2023-04-20T05:53:49.214Z,9.50
2023-04-20T05:58:52.364Z,9.60
2023-04-20T06:03:55.003Z,9.50
2023-04-20T06:08:58.242Z,9.50
2023-04-20T06:14:01.608Z,9.50
2023-04-20T06:19:04.102Z,9.60
2023-04-20T06:24:07.414Z,9.70
2023-04-20T06:29:09.888Z,9.80
2023-04-20T06:34:12.535Z,9.90
2023-04-20T06:39:17.726Z,9.90
2023-04-20T06:44:20.452Z,10.10
2023-04-20T06:49:22.949Z,10.20
2023-04-20T06:54:25.743Z,10.30
2023-04-20T06:59:28.687Z,10.40
2023-04-20T07:04:31.320Z,10.50
2023-04-20T07:09:33.877Z,10.60
2023-04-20T07:14:36.484Z,10.70
2023-04-20T07:19:38.969Z,10.80
2023-04-20T07:24:42.426Z,11.20
2023-04-20T07:29:44.962Z,11.50
2023-04-20T07:34:47.443Z,11.90
2023-04-20T07:39:52.766Z,12.10
2023-04-20T07:44:55.343Z,12.50
2023-04-20T07:49:57.940Z,12.70
2023-04-20T07:55:00.596Z,12.90
2023-04-20T08:00:06.216Z,13.00
2023-04-20T08:05:15.459Z,13.00
2023-04-20T08:10:18.521Z,13.10
2023-04-20T08:15:21.109Z,13.20
2023-04-20T08:20:23.914Z,13.10
2023-04-20T08:25:27.349Z,13.20
2023-04-20T08:30:30.025Z,13.30
2023-04-20T08:35:32.546Z,13.40
2023-04-20T08:40:37.101Z,13.40
2023-04-20T08:45:44.211Z,13.60
2023-04-20T08:50:47.777Z,13.70
2023-04-20T08:55:50.988Z,14.00
2023-04-20T09:00:53.525Z,14.10
2023-04-20T09:05:59.076Z,14.80
2023-04-20T09:11:01.530Z,15.40
2023-04-20T09:16:11.372Z,16.00
2023-04-20T09:21:14.048Z,16.60
2023-04-20T09:26:20.062Z,16.80
2023-04-20T09:31:23.624Z,17.20
2023-04-20T09:36:41.322Z,17.20
2023-04-20T09:41:44.615Z,17.10
2023-04-20T09:46:47.509Z,16.70
2023-04-20T09:51:51.574Z,16.60
2023-04-20T09:56:54.438Z,16.90
2023-04-20T10:01:56.990Z,17.30
2023-04-20T10:07:03.667Z,17.50
2023-04-20T10:12:08.478Z,17.40
2023-04-20T10:17:11.715Z,17.50
2023-04-20T10:22:33.008Z,17.70
2023-04-20T10:27:36.222Z,18.00
2023-04-20T10:32:39.031Z,18.20
2023-04-20T10:37:49.380Z,18.10
2023-04-20T10:42:51.874Z,18.10
2023-04-20T10:47:54.742Z,18.10
2023-04-20T10:52:57.267Z,18.00
2023-04-20T10:57:59.747Z,18.10
2023-04-20T11:03:04.194Z,18.60
2023-04-20T11:08:06.996Z,19.40
2023-04-20T11:13:23.432Z,19.40
2023-04-20T11:18:25.980Z,19.70
2023-04-20T11:23:38.346Z,20.10
2023-04-20T11:28:56.175Z,20.10
2023-04-20T11:33:59.397Z,20.30
2023-04-20T11:39:14.002Z,20.10
2023-04-20T11:44:16.697Z,20.10
2023-04-20T11:49:20.413Z,20.00
2023-04-20T11:54:24.345Z,20.20
2023-04-20T11:59:27.272Z,20.50
2023-04-20T12:04:31.459Z,20.90
2023-04-20T12:09:38.928Z,21.10
2023-04-20T12:14:41.435Z,21.40
2023-04-20T12:19:44.000Z,21.90
2023-04-20T12:24:46.993Z,22.00
2023-04-20T12:29:49.937Z,21.80
2023-04-20T12:34:52.564Z,21.30
2023-04-20T12:39:55.250Z,21.70
2023-04-20T12:44:57.779Z,22.30
2023-04-20T12:50:00.303Z,22.60
2023-04-20T12:55:03.444Z,22.60
2023-04-20T13:00:06.926Z,21.90
2023-04-20T13:11:17.469Z,22.20
2023-04-20T13:16:19.949Z,24.10
2023-04-20T13:21:22.503Z,25.80
2023-04-20T13:26:25.457Z,27.10
2023-04-20T13:31:28.282Z,27.10
2023-04-20T13:36:32.730Z,27.80
2023-04-20T13:41:35.281Z,28.00
2023-04-20T13:46:37.770Z,28.80
2023-04-20T13:51:40.576Z,29.20
2023-04-20T13:56:43.052Z,28.50
2023-04-20T14:01:45.736Z,28.80
2023-04-20T14:06:48.374Z,30.30
2023-04-20T14:11:53.455Z,30.60
2023-04-20T14:16:58.245Z,31.40
2023-04-20T14:22:00.950Z,31.40
2023-04-20T14:27:03.576Z,29.10
2023-04-20T14:32:06.626Z,29.30
2023-04-20T14:37:09.815Z,30.50
2023-04-20T14:42:13.247Z,28.00
2023-04-20T14:47:16.021Z,26.40
2023-04-20T14:52:18.494Z,28.00
2023-04-20T14:57:20.930Z,29.80
2023-04-20T15:02:23.506Z,31.50
2023-04-20T15:07:26.094Z,31.60
2023-04-20T15:12:28.646Z,29.60
2023-04-20T15:17:31.131Z,28.70
2023-04-20T15:22:33.926Z,29.80
2023-04-20T15:27:36.469Z,30.70
2023-04-20T15:32:39.743Z,30.90
2023-04-20T15:37:42.398Z,31.60
2023-04-20T15:42:45.342Z,29.60
2023-04-20T15:47:48.044Z,28.80
2023-04-20T15:52:52.966Z,29.90
2023-04-20T15:57:58.239Z,29.30
2023-04-20T16:03:02.109Z,27.30
2023-04-20T16:08:05.710Z,26.10
2023-04-20T16:13:08.312Z,24.70
2023-04-20T16:18:10.925Z,23.50
2023-04-20T16:23:14.141Z,23.30
2023-04-20T16:28:16.813Z,22.90
2023-04-20T16:33:19.762Z,22.30
2023-04-20T16:38:22.709Z,21.70
2023-04-20T16:43:25.928Z,21.40
2023-04-20T16:48:28.401Z,21.10
2023-04-20T16:53:31.193Z,20.60
2023-04-20T16:58:33.612Z,20.00
2023-04-20T17:03:36.303Z,19.60
2023-04-20T17:08:39.213Z,19.50
2023-04-20T17:13:41.653Z,20.00
2023-04-20T17:18:44.071Z,20.10
2023-04-20T17:23:47.376Z,19.60
2023-04-20T17:28:49.882Z,18.90
2023-04-20T17:33:52.401Z,18.50
2023-04-20T17:38:54.853Z,18.20
2023-04-20T17:43:57.249Z,18.00
2023-04-20T17:48:59.651Z,17.90
2023-04-20T17:54:02.073Z,17.70
2023-04-20T17:59:05.505Z,17.50
2023-04-20T18:04:08.875Z,17.10
2023-04-20T18:09:14.100Z,17.00
2023-04-20T18:14:16.773Z,16.70
2023-04-20T18:19:19.347Z,16.20
2023-04-20T18:24:21.912Z,16.00
2023-04-20T18:29:24.479Z,16.00
2023-04-20T18:34:30.208Z,15.80
2023-04-20T18:39:32.638Z,15.60
2023-04-20T18:44:35.110Z,15.70
2023-04-20T18:49:37.578Z,15.40
2023-04-20T18:54:40.409Z,14.90
2023-04-20T18:59:42.869Z,14.60
2023-04-20T19:04:45.291Z,14.60
2023-04-20T19:09:47.682Z,14.40
2023-04-20T19:14:50.075Z,14.30
2023-04-20T19:19:52.785Z,14.10
2023-04-20T19:24:55.233Z,13.80
2023-04-20T19:29:57.659Z,13.60
2023-04-20T19:35:00.831Z,13.20
2023-04-20T19:40:05.722Z,13.10
2023-04-20T19:45:08.607Z,13.10
2023-04-20T19:50:11.415Z,13.00
2023-04-20T19:55:54.104Z,12.80
2023-04-20T20:01:10.908Z,12.80
2023-04-20T20:06:32.716Z,12.50
2023-04-20T20:12:09.062Z,12.50
2023-04-20T20:23:22.779Z,12.30
2023-04-20T20:28:48.176Z,12.10
2023-04-20T20:34:02.864Z,12.10
2023-04-20T20:39:17.631Z,12.10
2023-04-20T20:44:35.526Z,12.10
2023-04-20T20:49:52.092Z,12.20
2023-04-20T20:55:05.546Z,12.20
2023-04-20T21:00:23.279Z,12.20
2023-04-20T21:05:49.600Z,12.20
2023-04-20T21:17:07.073Z,12.30
2023-04-20T21:22:25.558Z,12.40
2023-04-20T21:27:50.330Z,12.30
2023-04-20T21:32:55.954Z,12.40
2023-04-20T21:38:10.630Z,12.20
2023-04-20T21:43:48.467Z,12.30
2023-04-20T21:49:04.180Z,12.30
2023-04-20T21:54:13.213Z,12.30
2023-04-20T21:59:27.755Z,12.30
2023-04-20T22:04:36.051Z,12.20
2023-04-20T22:10:01.127Z,12.10
2023-04-20T22:15:08.852Z,12.10
2023-04-20T22:25:55.363Z,11.90
2023-04-20T22:31:31.669Z,11.80
2023-04-20T22:36:40.350Z,11.80
2023-04-20T22:41:53.877Z,11.70
2023-04-20T22:47:03.248Z,11.60
2023-04-20T22:52:13.023Z,11.50
2023-04-20T23:03:16.181Z,11.50
2023-04-20T23:08:31.918Z,11.40
2023-04-20T23:13:44.743Z,11.30
2023-04-20T23:19:04.959Z,11.30
2023-04-20T23:24:19.743Z,11.20
2023-04-20T23:29:33.269Z,11.20
2023-04-20T23:34:55.621Z,11.10
2023-04-20T23:40:02.801Z,11.00
2023-04-20T23:45:08.896Z,11.00
2023-04-20T23:50:22.657Z,10.90
2023-04-20T23:55:32.003Z,10.90
